CST,Max TemperatureF,Mean TemperatureF,Min TemperatureF,Max Dew PointF,MeanDew PointF,Min DewpointF,Max Humidity, Mean Humidity, Min Humidity, Max Sea Level PressureIn, Mean Sea Level PressureIn, Min Sea Level PressureIn, Max VisibilityMiles, Mean VisibilityMiles, Min VisibilityMiles, Max Wind SpeedMPH, Mean Wind SpeedMPH, Max Gust SpeedMPH,PrecipitationIn, CloudCover, Events, WindDirDegrees
2013-1-1,60,54,46,60,49,43,97,89,82,30.23,30.09,29.96,10,9,2,14,7,22,0.25,8,Rain,353
2013-1-2,46,43,40,43,38,36,86,83,80,30.33,30.27,30.20,10,9,7,12,8,16,0.00,7,,346
2013-1-3,54,44,33,37,34,32,94,69,43,30.44,30.39,30.33,10,9,5,14,5,20,0.00,2,Rain,7
2013-1-4,49,46,43,39,37,34,80,69,55,30.53,30.45,30.38,10,10,10,10,4,,0.00,8,Rain,26
2013-1-5,46,44,42,44,43,37,97,92,69,30.43,30.35,30.29,10,8,1,7,3,,0.65,8,Rain,39
2013-1-6,58,46,34,45,42,35,99,85,55,30.38,30.33,30.28,10,9,1,12,7,,0.00,4,,354
2013-1-7,58,44,30,46,38,30,100,80,51,30.36,30.27,30.15,10,8,1,9,2,,0.00,2,,69
2013-1-8,62,54,48,60,52,42,97,89,73,30.16,30.07,29.97,10,8,1,12,5,20,0.55,8,Rain,78
2013-1-9,66,64,61,64,62,60,96,94,91,30.12,30.04,29.97,10,9,2,20,7,29,1.31,8,Rain,88
2013-1-10,69,59,48,64,58,48,97,89,64,30.12,30.04,29.98,10,8,0,13,4,18,0.17,4,Fog-Rain,188
2013-1-11,73,58,42,63,51,42,99,81,45,30.07,30.01,29.94,10,6,0,8,1,,0.00,4,Fog,142
2013-1-12,75,70,64,69,68,63,97,87,76,29.95,29.87,29.77,10,7,1,17,8,25,0.00,8,Rain,164
2013-1-13,72,57,42,68,46,40,95,89,83,30.18,30.03,29.81,10,8,1,16,11,24,0.94,8,Rain,341
2013-1-14,45,41,37,41,38,36,96,90,83,30.28,30.19,30.11,10,9,2,13,9,20,0.14,8,Rain,19
2013-1-15,39,36,34,37,35,34,97,95,90,30.18,30.13,30.06,10,8,2,12,7,20,0.08,8,,360
2013-1-16,50,41,31,37,33,27,96,76,41,30.27,30.21,30.15,10,10,10,15,8,20,0.00,4,,332
2013-1-17,60,43,26,38,31,26,99,76,34,30.50,30.37,30.27,10,10,10,13,2,18,0.00,0,,328
2013-1-18,61,46,30,39,33,23,100,75,24,30.57,30.48,30.41,10,10,5,8,1,,0.00,0,,93
2013-1-19,63,46,30,44,38,30,100,81,42,30.40,30.32,30.24,10,9,3,7,1,,0.00,0,,194
2013-1-20,68,52,36,52,43,36,100,83,42,30.31,30.23,30.16,10,7,0,7,0,,0.00,2,Fog,216
2013-1-21,69,53,37,53,46,38,100,81,47,30.27,30.22,30.18,10,8,0,7,1,,0.00,2,Fog,36
2013-1-22,68,54,40,51,43,35,95,73,46,30.38,30.31,30.26,10,10,5,10,5,18,0.00,0,,94
2013-1-23,74,57,40,56,50,40,100,79,41,30.39,30.32,30.26,10,7,0,13,3,18,0.00,1,Fog,184
2013-1-24,72,63,54,64,59,53,98,89,72,30.33,30.25,30.19,10,7,0,13,3,21,0.00,7,Fog,181
2013-1-25,78,70,61,62,60,58,96,80,50,30.23,30.17,30.10,10,10,4,16,9,22,0.00,5,,193
2013-1-26,77,68,60,64,60,56,98,81,47,30.25,30.19,30.14,10,7,0,12,2,16,0.00,5,Fog,170
2013-1-27,75,67,59,64,60,57,94,80,59,30.21,30.15,30.11,10,10,10,14,5,22,0.00,4,,146
2013-1-28,79,72,66,66,64,62,92,80,55,30.18,30.11,30.04,10,10,7,14,7,22,0.00,7,,152
2013-1-29,75,67,59,70,67,56,93,86,75,30.03,29.83,29.66,10,8,4,17,10,29,0.33,8,Rain,172
2013-1-30,58,47,36,56,37,28,96,60,36,30.24,29.98,29.75,10,10,10,24,8,37,0.01,4,Rain,288
2013-1-31,65,48,30,41,31,24,100,63,21,30.34,30.28,30.23,10,10,7,13,2,17,0.00,0,,208